Pagina principale
METAR-TAF:

METAR-TAF

Aeroporti :

Aeroporto di Comiso

Comiso, Italia

latitudine: 36-59-30N, longitudine: 14-36-25E, altezza: 190 m

Osservazione

Il bollettino è stato emesso 2 ore e 18 minuti fa, alle 20:50 UTC
Vento 13 kt da est con raffiche fino a 28 kt, variando fra nord/nord-est e sud/sud-est
Temperature 21°C
Umidità 73%
Pressione 1012 hPa
Visibilità 10 km o più
Poco nuvoloso ad un'altezza di 2500 ft

METAR: LICB 172050Z 09013G28KT 030V150 9999 FEW025 21/16 Q1012

Ora: 01:08 (23:08 UTC)

Previsione

Il bollettino è stato emesso 6 ore e 8 minuti fa, alle 17:00 UTC
Previsione valida dal 17 alle 18 UTC al 18 alle 03 UTC
Vento 10 kt da est/sud-est
Visibilità 10 km o più
Nubi sparse ad un'altezza di 3000 ft

TAF: LICB 171700Z 1718/1803 12010KT 9999 SCT030

Osservazioni e previsioni meteorologiche di più di 4000 aeroporti (messaggi METAR e TAF).

Le stazioni disponibili sono rappresentate dai dischi gialli e rossi sulla carta.

Puntare il mouse per vedere il nome della stazione.

Clicca sopra per visualizzare le osservazioni e previsioni meteorologiche.

Per cambiare la mappa : fare clic sui pulsanti verdi con una croce nera per ingrandire, il pulsante verde con un trattino per diminuire, o sulla freccia verde per le mappe adiacenti.


METAR-TAF: